Aérodrome :
LOGIN :

S'inscrire | Disclaimer

   EN    FR    IT 

 










Légende :    VFR   VFR Marginal   IFR   IFR Intensif   IFR Très Intensif
Visi : 
Plafond : 
>= 8 km
>= 3000ft
5 à 8 km
1000 à 3000 ft
1500m à 5 km
500 à 1000 ft
800 à 1500m
200 à 500 ft
< 800m
< 200 ft
Symboles :   Orages  Brouillard  Fortes neiges  Fortes précipitations  Vent > 20 kt
SIGMETs :   Divers  Orages  Givrage  Turbulence  Onde Orograph.  Cendres Volcan.







- Altitude de l'aérodrome : 220 ft
- Code IATA : CWL
- Voir les cartes d'approche


EGFF - Cardiff Rhoose

DERNIER METAR :
  • 011720Z AUTO 24004KT 3500 -RADZ BKN002 OVC010 07/06 Q0997 REDZ

METARs EXPIRÉS :
  • 011650Z AUTO 27004KT 6000 -RA BKN002 OVC016 07/06 Q0997 RERA REDZ
  • 011620Z 27005KT 4800 -DZ BR FEW004 SCT008 BKN024 07/06 Q0997
  • 011550Z 24005KT 210V270 9999 9000W FEW009 SCT018 BKN036 07/06 Q0997
  • 011520Z 23005KT 9999 FEW010 BKN023 07/06 Q0997
  • 011450Z AUTO 23004KT 9999 FEW008 OVC025 08/06 Q0997

TAF AMD TAF EGFF
Valide du 01 à 18h jusqu'au 02 à 18h UTC


011731Z 0118/0218 26006KT 6000 -RA BKN008
BECMG 0118/0120 27022G32KT
TEMPO 0118/0119 3000 RADZ BKN002
BECMG 0119/0120 9999 NSW FEW025
PROB30
TEMPO 0120/0205 28025G44KT 5000 SHRA
BECMG 0213/0216 22006KT
ATIS : +44 1446 729 319
Pas de NOTAMs connus pour ce terrain.
1 SIGMET publié pour la FIR London (EGTT) :
 
Turbulence forte
EGTT SIGMET 01 VALID 011630/012000 EGRR
EGTT LONDON FIR SEV TURB FCST SW OF LINE N5113 W00736 - N4945 W00318 SFC/FL060 MOV ENE 25KT INTSF=



MET'MAP, la Météo Aéronautique d'un coup d'oeil ! - Copyright ORBIFLY Décembre 2007 - Disclaimer

ORBIFLY MET'MAP TEAM :

Programmation & Développement : Alexandra Zaïnal
Conception & Développement : Baudouin d'Aumeries
Co-Programmation & Développement : Marc-Olivier Méhu
Soutien technique & logistique : Manuel Goepfert

Contact : metmap@orbifly.com




SOURCES & CREDITS :

   NOAA